Time;durP1;ratioP1;P1;durP2;ratioP2;P2;SDS_P1;SDS_P2;PMS_P1;PMS_P2;Temp;Humidity;BMP_temperature;BMP_pressure;BME280_temperature;BME280_humidity;BME280_pressure;Samples;Min_cycle;Max_cycle;Signal;HPM_P1;HPM_P2
2023/05/10 00:02:10;;;;;;;17.55;11.02;;;;;;;14.52;100.00;100757.63;4979544;28;20062;-76
2023/05/10 00:04:39;;;;;;;15.68;10.68;;;;;;;14.48;100.00;100750.81;4966006;28;20063;-75
2023/05/10 00:07:07;;;;;;;21.80;10.77;;;;;;;14.53;100.00;100745.91;4979649;28;20035;-76
2023/05/10 00:09:33;;;;;;;21.85;12.40;;;;;;;14.58;100.00;100749.06;4982602;28;20560;-75
2023/05/10 00:11:58;;;;;;;20.92;12.57;;;;;;;14.49;100.00;100749.81;4968427;28;20035;-76
2023/05/10 00:14:24;;;;;;;19.58;12.73;;;;;;;14.54;100.00;100747.63;4960510;28;20601;-75
2023/05/10 00:16:50;;;;;;;23.50;13.68;;;;;;;14.43;100.00;100750.28;4984120;28;20039;-75
2023/05/10 00:19:15;;;;;;;19.48;13.35;;;;;;;14.54;100.00;100750.28;4969653;28;20035;-75
2023/05/10 00:21:41;;;;;;;27.50;15.32;;;;;;;14.34;100.00;100746.50;4963419;28;20059;-75
2023/05/10 00:24:06;;;;;;;27.38;14.20;;;;;;;14.46;100.00;100750.06;4953457;28;20039;-76
2023/05/10 00:26:32;;;;;;;27.77;15.70;;;;;;;14.34;100.00;100751.88;4967740;28;20776;-75
2023/05/10 00:28:58;;;;;;;30.63;16.80;;;;;;;14.47;100.00;100749.94;4971211;28;20039;-75
2023/05/10 00:31:23;;;;;;;28.05;15.63;;;;;;;14.52;100.00;100749.56;4975818;28;20082;-74
2023/05/10 00:33:49;;;;;;;33.60;17.95;;;;;;;14.46;100.00;100748.22;4965402;28;20795;-75
2023/05/10 00:36:15;;;;;;;29.50;18.05;;;;;;;14.42;100.00;100741.38;4946551;28;20034;-74
2023/05/10 00:38:40;;;;;;;43.72;21.13;;;;;;;14.40;100.00;100745.16;4961690;28;20528;-74
2023/05/10 00:41:06;;;;;;;43.40;22.70;;;;;;;14.49;100.00;100745.31;4967230;28;20125;-74
2023/05/10 00:43:37;;;;;;;45.50;23.50;;;;;;;14.48;100.00;100738.22;4967232;28;20023;-74
2023/05/10 00:46:05;;;;;;;51.30;24.42;;;;;;;14.45;100.00;100740.28;4973048;28;20733;-74
2023/05/10 00:48:31;;;;;;;46.80;24.38;;;;;;;14.54;100.00;100744.94;4948820;28;20126;-75
2023/05/10 00:50:57;;;;;;;67.60;31.35;;;;;;;14.37;100.00;100748.09;4967305;28;20249;-74
2023/05/10 00:53:26;;;;;;;70.13;31.85;;;;;;;14.35;100.00;100745.53;4970012;28;20082;-74
2023/05/10 00:55:52;;;;;;;80.75;33.80;;;;;;;14.49;100.00;100739.09;4967427;28;20038;-74
2023/05/10 00:58:18;;;;;;;74.65;33.17;;;;;;;14.39;100.00;100751.50;4976442;28;20344;-75
2023/05/10 01:00:46;;;;;;;83.40;36.05;;;;;;;14.39;100.00;100754.19;4963596;28;20526;-74
2023/05/10 01:03:11;;;;;;;84.75;37.60;;;;;;;14.49;100.00;100747.97;4964247;28;20039;-74
2023/05/10 01:05:37;;;;;;;94.75;38.72;;;;;;;14.52;100.00;100752.25;4968091;28;20050;-74
2023/05/10 01:08:03;;;;;;;105.50;41.38;;;;;;;14.47;100.00;100743.69;4966856;28;20137;-74
2023/05/10 01:10:31;;;;;;;98.82;41.65;;;;;;;14.54;100.00;100736.03;4969302;28;20043;-74
2023/05/10 01:12:59;;;;;;;100.13;42.35;;;;;;;14.64;100.00;100736.97;4960607;28;20031;-74
2023/05/10 01:15:25;;;;;;;105.63;42.00;;;;;;;14.70;100.00;100731.09;4979191;28;20126;-73
2023/05/10 01:17:52;;;;;;;86.80;41.58;;;;;;;14.75;100.00;100731.56;4976697;28;20472;-74
2023/05/10 01:20:18;;;;;;;94.35;43.58;;;;;;;14.68;100.00;100733.91;4961549;28;20043;-74
2023/05/10 01:23:08;;;;;;;91.13;42.65;;;;;;;14.72;100.00;100737.22;4964150;28;20035;-75
2023/05/10 01:25:55;;;;;;;101.93;42.70;;;;;;;14.79;100.00;100733.03;4981713;28;20057;-74
2023/05/10 01:28:35;;;;;;;104.15;43.30;;;;;;;14.80;100.00;100734.72;4969372;28;20035;-74
2023/05/10 01:31:22;;;;;;;104.75;43.80;;;;;;;14.75;100.00;100729.75;4968950;28;20121;-74
2023/05/10 01:33:55;;;;;;;110.53;45.53;;;;;;;14.59;100.00;100737.34;4965979;28;20045;-74
2023/05/10 01:36:45;;;;;;;127.75;50.53;;;;;;;14.67;100.00;100742.09;4982262;28;20140;-74
2023/05/10 01:39:23;;;;;;;112.15;46.97;;;;;;;14.77;100.00;100741.22;4957308;28;20062;-73
2023/05/10 01:41:55;;;;;;;141.63;52.15;;;;;;;14.59;100.00;100740.03;4964398;28;20034;-74
2023/05/10 01:44:27;;;;;;;137.32;52.85;;;;;;;14.61;100.00;100739.91;4958941;28;20818;-74
2023/05/10 01:47:09;;;;;;;141.02;53.88;;;;;;;14.59;100.00;100742.72;4971352;28;20138;-74
2023/05/10 01:49:41;;;;;;;145.45;56.10;;;;;;;14.62;100.00;100745.16;4965271;28;20047;-74
2023/05/10 01:52:12;;;;;;;151.10;57.33;;;;;;;14.53;100.00;100743.22;4976907;28;20041;-74
2023/05/10 01:54:44;;;;;;;160.90;58.88;;;;;;;14.48;100.00;100743.59;4966933;28;20031;-74
2023/05/10 01:57:13;;;;;;;161.73;57.72;;;;;;;14.45;100.00;100745.63;4983259;28;20031;-74
2023/05/10 01:59:42;;;;;;;158.70;58.17;;;;;;;14.61;100.00;100748.84;4965123;28;20027;-73
2023/05/10 02:02:11;;;;;;;152.73;55.53;;;;;;;14.60;100.00;100746.25;4971571;28;20050;-75
2023/05/10 02:04:39;;;;;;;133.80;54.55;;;;;;;14.62;100.00;100747.00;4967112;28;20030;-75
2023/05/10 02:07:09;;;;;;;140.85;54.63;;;;;;;14.60;100.00;100751.63;4983228;28;20186;-74
2023/05/10 02:09:36;;;;;;;158.00;56.67;;;;;;;14.60;100.00;100751.63;4981530;28;20039;-75
2023/05/10 02:12:06;;;;;;;158.88;58.33;;;;;;;14.44;100.00;100742.09;4962815;28;20034;-74
2023/05/10 02:14:35;;;;;;;143.75;55.47;;;;;;;14.62;100.00;100749.69;4953556;28;20035;-75
2023/05/10 02:17:07;;;;;;;171.60;57.45;;;;;;;14.54;100.00;100744.94;4980286;28;20047;-75
2023/05/10 02:19:37;;;;;;;148.03;57.33;;;;;;;14.61;100.00;100745.28;4971269;28;20039;-74
2023/05/10 02:22:03;;;;;;;136.93;54.67;;;;;;;14.29;100.00;100750.53;4972555;28;20042;-74
2023/05/10 02:24:34;;;;;;;158.43;55.60;;;;;;;14.42;100.00;100748.59;4965477;28;20031;-74
2023/05/10 02:27:03;;;;;;;147.43;55.90;;;;;;;14.38;100.00;100758.72;4966986;28;20097;-73
2023/05/10 02:29:29;;;;;;;147.85;55.35;;;;;;;14.45;100.00;100764.41;4968915;28;20046;-74
2023/05/10 02:31:57;;;;;;;144.48;56.45;;;;;;;14.47;100.00;100758.00;4971593;28;20034;-75
2023/05/10 02:34:25;;;;;;;141.38;53.60;;;;;;;14.52;100.00;100767.50;4987312;28;20030;-73
2023/05/10 02:36:52;;;;;;;136.00;53.17;;;;;;;14.38;100.00;100766.75;4975493;28;20868;-75
2023/05/10 02:39:19;;;;;;;149.93;55.50;;;;;;;14.37;100.00;100773.09;4983260;28;20089;-76
2023/05/10 02:41:47;;;;;;;131.20;51.90;;;;;;;14.44;100.00;100762.72;4968951;28;20497;-73
2023/05/10 02:44:15;;;;;;;136.40;51.95;;;;;;;14.46;100.00;100772.38;4969895;28;20129;-75
2023/05/10 02:46:41;;;;;;;126.32;49.42;;;;;;;14.56;100.00;100764.47;4980293;28;20039;-73
2023/05/10 02:49:06;;;;;;;145.88;53.15;;;;;;;14.50;100.00;100763.09;4974382;28;20500;-76
2023/05/10 02:51:37;;;;;;;131.10;49.65;;;;;;;14.41;100.00;100773.72;4976389;28;20038;-76
2023/05/10 02:54:10;;;;;;;125.88;48.20;;;;;;;14.52;100.00;100765.69;4960225;28;20114;-75
2023/05/10 02:56:40;;;;;;;125.97;49.65;;;;;;;14.45;100.00;100759.06;4961014;28;20394;-74
2023/05/10 02:59:06;;;;;;;124.55;48.50;;;;;;;14.31;100.00;100760.19;4967832;28;20067;-76
2023/05/10 03:01:32;;;;;;;131.57;48.20;;;;;;;14.23;100.00;100768.84;4977935;28;20500;-76
2023/05/10 03:03:58;;;;;;;130.07;50.08;;;;;;;14.32;100.00;100774.44;4974880;28;20039;-76
2023/05/10 03:06:23;;;;;;;136.18;47.75;;;;;;;14.21;100.00;100770.81;4978049;28;20574;-76
2023/05/10 03:08:49;;;;;;;132.32;49.40;;;;;;;14.25;100.00;100758.81;4986064;28;20043;-76
2023/05/10 03:11:49;;;;;;;134.48;49.05;;;;;;;14.17;100.00;100766.66;4974587;28;20110;-75
2023/05/10 03:14:32;;;;;;;150.15;52.17;;;;;;;14.31;100.00;100768.25;4971505;28;20159;-76
2023/05/10 03:17:17;;;;;;;136.43;50.58;;;;;;;14.19;100.00;100775.41;4967422;28;20154;-73
2023/05/10 03:19:50;;;;;;;132.07;47.72;;;;;;;14.12;100.00;100784.94;4982893;28;20038;-74
2023/05/10 03:22:26;;;;;;;143.13;51.05;;;;;;;14.28;100.00;100776.53;4971686;28;20038;-73
2023/05/10 03:24:55;;;;;;;131.10;49.30;;;;;;;14.22;100.00;100782.38;4968109;28;20237;-73
2023/05/10 03:27:23;;;;;;;153.35;53.22;;;;;;;14.22;100.00;100785.06;4974436;28;20058;-72
2023/05/10 03:29:51;;;;;;;131.80;51.35;;;;;;;14.09;100.00;100784.31;4970548;28;20162;-73
2023/05/10 03:32:20;;;;;;;131.85;51.90;;;;;;;14.05;100.00;100789.06;4970123;28;20056;-73
2023/05/10 03:34:45;;;;;;;129.85;53.42;;;;;;;14.32;100.00;100795.91;4963391;28;20186;-73
2023/05/10 03:37:11;;;;;;;144.48;58.13;;;;;;;14.21;100.00;100786.03;4967995;28;20580;-74
2023/05/10 03:39:36;;;;;;;138.93;55.90;;;;;;;14.28;100.00;100797.97;4952571;28;20510;-75
2023/05/10 03:42:05;;;;;;;170.52;60.05;;;;;;;14.20;100.00;100792.34;4965717;28;20106;-75
2023/05/10 03:44:33;;;;;;;157.75;61.83;;;;;;;14.05;100.00;100794.41;4965213;28;20035;-75
2023/05/10 03:46:59;;;;;;;140.70;57.72;;;;;;;14.05;100.00;100794.41;4959190;28;20051;-74
2023/05/10 03:49:25;;;;;;;136.88;54.88;;;;;;;14.16;100.00;100794.44;4979745;28;20506;-75
2023/05/10 03:51:50;;;;;;;151.70;61.40;;;;;;;14.03;100.00;100793.69;4966063;28;20030;-74
2023/05/10 03:54:20;;;;;;;152.18;60.38;;;;;;;14.12;100.00;100798.34;4971501;28;20962;-75
2023/05/10 03:56:47;;;;;;;163.10;63.78;;;;;;;14.04;100.00;100798.09;4981936;28;20057;-75
2023/05/10 03:59:14;;;;;;;164.35;62.42;;;;;;;14.00;100.00;100807.34;4976732;28;20668;-75
2023/05/10 04:01:40;;;;;;;162.48;60.85;;;;;;;14.00;100.00;100810.00;4956150;28;20094;-75
2023/05/10 04:04:06;;;;;;;172.25;62.83;;;;;;;14.05;100.00;100805.16;4965549;28;20105;-75
2023/05/10 04:06:33;;;;;;;164.65;65.03;;;;;;;13.93;100.00;100806.97;4964485;28;20036;-75
2023/05/10 04:09:00;;;;;;;155.23;62.50;;;;;;;13.91;100.00;100811.59;4971622;28;20070;-75
2023/05/10 04:11:25;;;;;;;182.70;65.88;;;;;;;13.87;100.00;100814.66;4983602;28;20039;-75
2023/05/10 04:13:51;;;;;;;174.65;65.63;;;;;;;13.72;100.00;100817.53;4964892;28;20054;-75
2023/05/10 04:16:17;;;;;;;165.48;62.60;;;;;;;13.90;100.00;100819.75;4969401;28;20034;-75
2023/05/10 04:18:43;;;;;;;160.35;58.95;;;;;;;13.69;100.00;100811.53;4969182;28;20041;-75
2023/05/10 04:21:13;;;;;;;149.55;58.28;;;;;;;13.86;100.00;100816.47;4970361;28;20035;-75
2023/05/10 04:23:40;;;;;;;154.98;58.20;;;;;;;13.90;100.00;100812.56;4940722;28;20933;-75
2023/05/10 04:26:06;;;;;;;151.77;55.88;;;;;;;13.70;100.00;100815.94;4963614;28;20040;-75
2023/05/10 04:28:33;;;;;;;130.63;52.72;;;;;;;13.82;100.00;100819.50;4962641;28;20070;-74
2023/05/10 04:31:06;;;;;;;153.60;54.58;;;;;;;13.74;100.00;100820.09;4966193;28;20031;-75
2023/05/10 04:33:33;;;;;;;152.60;55.90;;;;;;;13.80;100.00;100824.13;4966797;28;20100;-74
2023/05/10 04:35:58;;;;;;;153.55;56.28;;;;;;;13.86;100.00;100829.03;4971647;28;20621;-74
2023/05/10 04:38:24;;;;;;;156.30;56.20;;;;;;;13.78;100.00;100816.19;4967565;28;20047;-75
2023/05/10 04:40:50;;;;;;;160.07;58.30;;;;;;;13.84;100.00;100813.03;4949979;28;21311;-75
2023/05/10 04:43:15;;;;;;;165.63;56.40;;;;;;;13.84;100.00;100814.88;4962990;28;20142;-74
2023/05/10 04:45:41;;;;;;;158.40;56.63;;;;;;;13.95;100.00;100825.59;4965741;28;20065;-73
2023/05/10 04:48:07;;;;;;;154.90;56.67;;;;;;;14.04;100.00;100832.09;4965064;28;20050;-74
2023/05/10 04:50:33;;;;;;;148.95;54.30;;;;;;;14.10;100.00;100823.56;4981523;28;20038;-74
2023/05/10 04:52:58;;;;;;;147.00;54.90;;;;;;;14.14;100.00;100825.03;4963376;28;20031;-74
2023/05/10 04:55:24;;;;;;;144.52;54.95;;;;;;;14.01;100.00;100830.50;4975105;28;20477;-73
2023/05/10 04:57:49;;;;;;;146.70;54.97;;;;;;;14.09;100.00;100824.53;4966890;28;20384;-74
2023/05/10 05:00:15;;;;;;;138.18;54.00;;;;;;;14.24;100.00;100826.88;4966831;28;20031;-76
2023/05/10 05:02:47;;;;;;;132.55;51.88;;;;;;;14.17;100.00;100825.66;4968905;28;20665;-76
2023/05/10 05:05:13;;;;;;;134.93;52.28;;;;;;;14.17;100.00;100832.84;4968405;28;20050;-76
2023/05/10 05:07:39;;;;;;;140.60;54.00;;;;;;;14.37;100.00;100831.28;4961447;28;20193;-75
2023/05/10 05:10:09;;;;;;;131.18;50.83;;;;;;;14.23;100.00;100832.34;4965213;28;20047;-76
2023/05/10 05:12:35;;;;;;;134.80;54.50;;;;;;;14.10;100.00;100835.13;4976677;28;20051;-75
2023/05/10 05:15:05;;;;;;;124.82;52.03;;;;;;;14.02;100.00;100840.25;4978436;28;20039;-74
2023/05/10 05:17:32;;;;;;;126.55;50.38;;;;;;;14.27;100.00;100841.03;4959008;28;20031;-75
2023/05/10 05:20:01;;;;;;;115.15;47.72;;;;;;;14.41;100.00;100835.44;4973293;28;20179;-74
2023/05/10 05:22:31;;;;;;;116.22;48.80;;;;;;;14.44;100.00;100830.66;4976341;28;20123;-76
2023/05/10 05:24:58;;;;;;;118.75;48.00;;;;;;;14.44;100.00;100838.69;4973243;28;20040;-74
2023/05/10 05:27:25;;;;;;;107.68;44.92;;;;;;;14.54;100.00;100838.84;4964926;28;20041;-75
2023/05/10 05:29:54;;;;;;;126.80;48.33;;;;;;;14.52;100.00;100837.28;4965021;28;20042;-74
2023/05/10 05:32:20;;;;;;;117.10;47.80;;;;;;;14.58;100.00;100834.94;4965370;28;20030;-75
2023/05/10 05:34:46;;;;;;;103.78;44.45;;;;;;;14.63;100.00;100831.91;4961069;28;20047;-73
2023/05/10 05:37:16;;;;;;;100.63;43.78;;;;;;;14.66;100.00;100837.88;4963234;28;20082;-74
2023/05/10 05:39:42;;;;;;;113.78;46.03;;;;;;;14.65;100.00;100837.97;4958230;28;20031;-74
2023/05/10 05:42:09;;;;;;;101.95;43.45;;;;;;;14.58;100.00;100844.84;4968623;28;20077;-72
2023/05/10 05:44:35;;;;;;;112.20;46.15;;;;;;;14.56;100.00;100844.97;4967498;28;20195;-76
2023/05/10 05:47:03;;;;;;;105.63;45.03;;;;;;;14.59;100.00;100838.47;4958712;28;20075;-75
2023/05/10 05:49:28;;;;;;;114.70;46.03;;;;;;;14.54;100.00;100848.72;4958632;28;20049;-74
2023/05/10 05:51:54;;;;;;;101.15;44.53;;;;;;;14.38;100.00;100849.06;4964364;28;20840;-74
2023/05/10 05:54:20;;;;;;;108.25;45.85;;;;;;;14.48;100.00;100852.75;4960808;28;20753;-74
2023/05/10 05:56:46;;;;;;;107.28;44.65;;;;;;;14.47;100.00;100853.72;4985493;28;20077;-74
2023/05/10 05:59:11;;;;;;;104.05;43.10;;;;;;;14.67;100.00;100849.47;4958481;28;20149;-73
2023/05/10 06:01:37;;;;;;;99.53;41.60;;;;;;;14.52;100.00;100848.88;4958923;28;20047;-74
2023/05/10 06:04:02;;;;;;;96.35;42.67;;;;;;;14.54;100.00;100848.72;4967080;28;20489;-72
2023/05/10 06:06:28;;;;;;;117.18;47.00;;;;;;;14.54;100.00;100852.25;4961401;28;20043;-73
2023/05/10 06:08:54;;;;;;;130.18;47.25;;;;;;;14.50;100.00;100848.97;4970044;28;20165;-72
2023/05/10 06:11:20;;;;;;;113.57;45.50;;;;;;;14.48;100.00;100852.75;4962713;28;20101;-73
2023/05/10 06:13:47;;;;;;;109.65;46.10;;;;;;;14.57;100.00;100857.41;4959624;28;20122;-72
2023/05/10 06:16:13;;;;;;;110.32;44.08;;;;;;;14.70;100.00;100858.09;4963957;28;20041;-74
2023/05/10 06:18:39;;;;;;;113.35;47.50;;;;;;;14.74;100.00;100859.56;4968503;28;20166;-74
2023/05/10 06:21:05;;;;;;;118.65;47.90;;;;;;;14.82;100.00;100855.44;4957818;28;20042;-74
2023/05/10 06:23:32;;;;;;;124.03;46.17;;;;;;;14.91;100.00;100860.03;4968673;28;20036;-73
2023/05/10 06:25:58;;;;;;;118.30;47.20;;;;;;;14.97;100.00;100862.25;4958292;28;20077;-72
2023/05/10 06:28:24;;;;;;;115.35;46.70;;;;;;;15.10;100.00;100854.00;4969869;28;20035;-75
2023/05/10 06:30:50;;;;;;;131.40;51.53;;;;;;;15.02;100.00;100868.09;4964577;28;20043;-72
2023/05/10 06:33:15;;;;;;;133.23;48.95;;;;;;;15.03;100.00;100867.94;4977029;28;20039;-74
2023/05/10 06:35:41;;;;;;;113.43;46.00;;;;;;;15.13;100.00;100862.69;4978764;28;20034;-74
2023/05/10 06:38:07;;;;;;;135.32;49.92;;;;;;;14.99;100.00;100877.22;4969181;28;20027;-73
2023/05/10 06:40:32;;;;;;;120.55;49.92;;;;;;;14.97;100.00;100875.66;4968973;28;20038;-75
2023/05/10 06:42:58;;;;;;;128.90;51.25;;;;;;;14.96;100.00;100876.63;4975163;28;20053;-72
2023/05/10 06:45:23;;;;;;;115.63;48.95;;;;;;;15.10;100.00;100878.19;4969165;28;20054;-73
2023/05/10 06:47:49;;;;;;;131.98;51.28;;;;;;;15.13;100.00;100883.31;4983215;28;20061;-73
2023/05/10 06:50:15;;;;;;;118.50;49.28;;;;;;;15.35;100.00;100877.88;4963994;28;20050;-72
2023/05/10 06:52:40;;;;;;;111.53;50.35;;;;;;;15.18;100.00;100881.13;4964841;28;20036;-73
2023/05/10 06:55:06;;;;;;;120.53;51.28;;;;;;;15.14;100.00;100879.66;4961340;28;20087;-71
2023/05/10 06:57:32;;;;;;;133.57;51.28;;;;;;;15.23;100.00;100877.06;4970497;28;20131;-72
2023/05/10 06:59:59;;;;;;;127.38;52.20;;;;;;;15.29;100.00;100875.69;4966898;28;20044;-72
2023/05/10 07:02:24;;;;;;;119.47;48.30;;;;;;;15.25;100.00;100869.72;4985983;28;20468;-72
2023/05/10 07:04:53;;;;;;;111.70;48.10;;;;;;;15.21;100.00;100886.22;4980174;28;20028;-73
2023/05/10 07:07:19;;;;;;;109.40;48.10;;;;;;;15.07;100.00;100886.53;4980585;28;20074;-72
2023/05/10 07:09:45;;;;;;;115.30;48.47;;;;;;;15.16;100.00;100894.69;4963109;28;20087;-72
2023/05/10 07:12:10;;;;;;;113.10;48.40;;;;;;;15.01;100.00;100890.56;4984177;28;20039;-75
2023/05/10 07:14:36;;;;;;;102.40;46.75;;;;;;;14.96;100.00;100890.94;4974009;28;20043;-74
2023/05/10 07:17:02;;;;;;;107.97;47.50;;;;;;;14.90;100.00;100896.78;4960840;28;20074;-76
2023/05/10 07:19:29;;;;;;;98.30;45.63;;;;;;;14.91;100.00;100911.03;4963044;28;20040;-73
2023/05/10 07:21:55;;;;;;;100.60;43.30;;;;;;;14.97;100.00;100907.91;4967525;28;20191;-73
2023/05/10 07:24:20;;;;;;;95.32;42.00;;;;;;;14.93;100.00;100911.78;4969099;28;20105;-73
2023/05/10 07:26:46;;;;;;;92.32;40.95;;;;;;;14.74;100.00;100915.09;4984616;28;20041;-74
2023/05/10 07:29:12;;;;;;;74.65;37.10;;;;;;;14.84;100.00;100918.75;4965167;28;20122;-71
2023/05/10 07:31:37;;;;;;;88.20;40.17;;;;;;;14.85;100.00;100915.09;4973121;28;20492;-73
2023/05/10 07:34:03;;;;;;;89.90;41.13;;;;;;;14.77;100.00;100918.41;4963109;28;20046;-71
2023/05/10 07:36:28;;;;;;;92.00;37.90;;;;;;;14.70;100.00;100922.53;4969796;28;20047;-73
2023/05/10 07:38:54;;;;;;;86.95;40.00;;;;;;;14.60;100.00;100921.53;4971082;28;20035;-73
2023/05/10 07:41:20;;;;;;;95.20;41.33;;;;;;;14.57;100.00;100921.81;4968537;28;20067;-73
2023/05/10 07:43:46;;;;;;;96.45;41.17;;;;;;;14.70;100.00;100924.34;4973651;28;20027;-73
2023/05/10 07:46:12;;;;;;;96.05;39.35;;;;;;;14.57;100.00;100921.81;4967495;28;20042;-73
2023/05/10 07:48:38;;;;;;;100.40;42.55;;;;;;;14.74;100.00;100936.56;4966425;28;20059;-73
2023/05/10 07:51:03;;;;;;;98.32;42.35;;;;;;;14.69;100.00;100928.88;4964195;28;20882;-72
2023/05/10 07:53:30;;;;;;;106.72;43.63;;;;;;;14.70;100.00;100929.72;4969449;28;20484;-72
2023/05/10 07:55:58;;;;;;;99.50;41.28;;;;;;;15.10;100.00;100934.59;4974804;28;20480;-73
2023/05/10 07:58:24;;;;;;;92.35;40.40;;;;;;;15.42;100.00;100934.69;4967094;28;20724;-72
2023/05/10 08:00:50;;;;;;;101.38;43.03;;;;;;;15.48;100.00;100926.94;4964746;28;20044;-74
2023/05/10 08:03:16;;;;;;;99.18;43.85;;;;;;;15.38;100.00;100935.91;4980836;28;20035;-72
2023/05/10 08:05:41;;;;;;;97.07;43.47;;;;;;;15.25;100.00;100939.56;4971987;28;20070;-73
2023/05/10 08:08:07;;;;;;;92.95;43.10;;;;;;;15.68;100.00;100929.84;4966244;28;20163;-72
2023/05/10 08:10:32;;;;;;;96.13;42.22;;;;;;;15.67;100.00;100925.47;4954440;28;20937;-72
2023/05/10 08:12:58;;;;;;;97.95;45.28;;;;;;;15.57;100.00;100930.72;4965094;28;20035;-72
2023/05/10 08:15:25;;;;;;;97.53;43.92;;;;;;;15.69;100.00;100932.41;4963169;28;20503;-72
2023/05/10 08:17:54;;;;;;;100.40;44.05;;;;;;;15.73;100.00;100936.56;4960385;28;20042;-72
2023/05/10 08:20:20;;;;;;;91.22;41.90;;;;;;;15.95;100.00;100935.59;4971198;28;20042;-73
2023/05/10 08:22:46;;;;;;;91.28;41.17;;;;;;;16.02;100.00;100926.03;4965188;28;20089;-72
2023/05/10 08:25:12;;;;;;;91.32;41.28;;;;;;;16.10;100.00;100933.44;4963055;28;20043;-72
2023/05/10 08:27:37;;;;;;;89.65;39.28;;;;;;;16.23;100.00;100931.41;4960863;28;20032;-72
2023/05/10 08:30:03;;;;;;;86.70;38.42;;;;;;;16.41;100.00;100936.19;4958687;28;20047;-73
2023/05/10 08:32:28;;;;;;;83.00;37.80;;;;;;;16.50;100.00;100938.09;4965585;28;21823;-75
2023/05/10 08:34:55;;;;;;;87.93;37.42;;;;;;;16.73;100.00;100938.81;4961505;28;20106;-74
2023/05/10 08:37:23;;;;;;;71.93;36.53;;;;;;;16.69;100.00;100938.19;4962450;28;20046;-72
2023/05/10 08:39:48;;;;;;;78.43;38.22;;;;;;;16.93;100.00;100939.75;4969510;28;20035;-72
2023/05/10 08:42:18;;;;;;;75.68;36.97;;;;;;;16.74;100.00;100938.69;4963136;28;20035;-73
2023/05/10 08:44:47;;;;;;;76.43;38.33;;;;;;;17.38;100.00;100936.63;4963749;28;21126;-74
2023/05/10 08:47:16;;;;;;;70.97;36.22;;;;;;;17.71;100.00;100944.31;4963840;28;20067;-74
2023/05/10 08:49:44;;;;;;;68.57;36.08;;;;;;;17.60;100.00;100950.69;4964219;28;20074;-73
2023/05/10 08:52:12;;;;;;;77.38;37.63;;;;;;;17.64;100.00;100951.28;4961798;28;20771;-75
2023/05/10 08:54:39;;;;;;;76.55;37.67;;;;;;;17.81;100.00;100949.75;4957937;28;20061;-72
2023/05/10 08:57:06;;;;;;;71.43;36.25;;;;;;;18.18;100.00;100955.31;4981882;28;20039;-72
2023/05/10 08:59:32;;;;;;;67.32;35.05;;;;;;;18.67;100.00;100947.91;4962921;28;20985;-72
2023/05/10 09:01:59;;;;;;;72.97;37.65;;;;;;;19.12;100.00;100950.75;4977292;28;20496;-72
2023/05/10 09:04:25;;;;;;;59.70;32.72;;;;;;;19.36;100.00;100952.91;4968952;28;20069;-72
2023/05/10 09:06:51;;;;;;;60.10;32.85;;;;;;;19.10;100.00;100950.06;4965022;28;20110;-73
2023/05/10 09:09:18;;;;;;;57.20;32.03;;;;;;;18.71;100.00;100948.53;4967782;28;20043;-73
2023/05/10 09:11:44;;;;;;;62.15;32.55;;;;;;;18.17;100.00;100956.28;4952386;28;20138;-72
2023/05/10 09:14:12;;;;;;;62.78;33.45;;;;;;;17.54;100.00;100962.06;4965006;28;20102;-72
2023/05/10 09:16:39;;;;;;;57.80;31.40;;;;;;;17.24;100.00;100967.50;4976448;28;20031;-73
2023/05/10 09:19:07;;;;;;;52.05;27.77;;;;;;;17.16;100.00;100972.72;4949376;28;20186;-74
2023/05/10 09:21:36;;;;;;;46.50;26.85;;;;;;;17.15;100.00;100973.72;4965325;28;20105;-74
2023/05/10 09:24:10;;;;;;;46.13;26.20;;;;;;;17.36;100.00;100982.56;4958524;28;20489;-73
2023/05/10 09:26:47;;;;;;;50.92;28.77;;;;;;;17.31;100.00;100984.81;4962077;28;20037;-74
2023/05/10 09:29:13;;;;;;;55.00;28.95;;;;;;;16.60;100.00;100983.91;4962122;28;20225;-73
2023/05/10 09:31:46;;;;;;;52.40;28.13;;;;;;;16.56;100.00;100988.69;4967993;28;20253;-72
2023/05/10 09:34:17;;;;;;;59.53;29.88;;;;;;;16.91;100.00;100993.75;4962954;28;20039;-71
2023/05/10 09:36:57;;;;;;;50.50;27.42;;;;;;;17.33;100.00;100996.34;4968969;28;20066;-72
2023/05/10 09:39:33;;;;;;;47.85;26.77;;;;;;;17.95;100.00;101002.44;4964754;28;20070;-73
2023/05/10 09:42:03;;;;;;;53.10;25.58;;;;;;;17.49;100.00;100999.38;4972544;28;20065;-74
2023/05/10 09:44:30;;;;;;;46.45;25.80;;;;;;;17.29;100.00;101008.38;4966135;28;20594;-75
2023/05/10 09:46:55;;;;;;;41.05;22.67;;;;;;;17.24;100.00;101003.41;4977814;28;20055;-73
2023/05/10 09:49:22;;;;;;;40.45;21.80;;;;;;;17.72;100.00;101000.00;4958499;28;20054;-73
2023/05/10 09:51:59;;;;;;;31.48;17.80;;;;;;;18.17;100.00;100998.59;4968836;28;20038;-72
2023/05/10 09:54:24;;;;;;;29.40;17.08;;;;;;;18.69;100.00;100997.31;4963885;28;20039;-72
2023/05/10 09:56:50;;;;;;;28.90;16.92;;;;;;;18.83;100.00;101002.25;4965183;28;20047;-72
2023/05/10 09:59:16;;;;;;;26.30;15.85;;;;;;;18.95;99.15;100988.56;4962489;28;20046;-73
2023/05/10 10:01:49;;;;;;;31.05;16.02;;;;;;;18.99;100.00;101003.47;4964304;28;20075;-74
2023/05/10 10:04:15;;;;;;;23.17;14.48;;;;;;;19.16;99.64;101005.38;4981285;28;20043;-75
2023/05/10 10:06:41;;;;;;;22.63;13.95;;;;;;;19.18;98.33;101010.63;4970243;28;20070;-74
2023/05/10 10:09:09;;;;;;;26.10;15.68;;;;;;;19.26;97.15;101008.06;4963626;28;20121;-74
2023/05/10 10:11:38;;;;;;;22.25;13.77;;;;;;;19.66;97.66;101002.31;4965007;28;20032;-73
2023/05/10 10:14:04;;;;;;;22.17;14.32;;;;;;;19.83;93.51;101006.03;4970859;28;20035;-75
2023/05/10 10:16:32;;;;;;;22.17;13.88;;;;;;;19.92;94.31;101005.97;4966250;28;20027;-72
2023/05/10 10:18:58;;;;;;;23.42;12.65;;;;;;;20.32;91.56;101003.78;4979856;28;20140;-72
2023/05/10 10:21:24;;;;;;;19.23;12.40;;;;;;;20.55;92.08;101007.75;4977390;28;20117;-72
2023/05/10 10:23:50;;;;;;;18.20;11.02;;;;;;;21.04;86.03;101009.94;4971267;28;20250;-74
2023/05/10 10:26:18;;;;;;;16.60;10.07;;;;;;;20.77;86.87;101009.06;4979727;28;20038;-74
2023/05/10 10:29:16;;;;;;;15.20;10.02;;;;;;;20.53;85.72;101008.91;4967284;28;20043;-73
2023/05/10 10:31:58;;;;;;;16.17;10.60;;;;;;;19.48;84.79;101018.50;4969438;28;21068;-73
2023/05/10 10:34:29;;;;;;;16.70;10.00;;;;;;;19.81;87.37;101008.91;4968790;28;20094;-72
2023/05/10 10:36:56;;;;;;;17.02;10.18;;;;;;;19.75;89.52;101016.78;4959966;28;20115;-72
2023/05/10 10:39:27;;;;;;;15.30;10.02;;;;;;;20.34;83.59;101007.22;4963274;28;20211;-73
2023/05/10 10:41:55;;;;;;;22.60;11.38;;;;;;;20.66;87.81;101012.06;4965883;28;20256;-72
2023/05/10 10:44:37;;;;;;;16.98;10.27;;;;;;;20.22;81.95;101009.28;4962663;28;20027;-72
2023/05/10 10:47:14;;;;;;;14.43;9.93;;;;;;;20.03;82.54;101012.16;4956772;28;20055;-72
2023/05/10 10:49:41;;;;;;;13.20;10.27;;;;;;;19.88;80.95;101010.00;4971426;28;20122;-72
2023/05/10 10:52:20;;;;;;;13.02;7.47;;;;;;;20.04;80.58;101022.00;4979297;28;20039;-72
2023/05/10 10:55:24;;;;;;;14.10;8.70;;;;;;;19.70;82.61;101017.25;4965489;28;20991;-72
2023/05/10 10:57:55;;;;;;;12.05;8.75;;;;;;;19.72;82.37;101019.78;4964660;28;20047;-73
2023/05/10 11:00:22;;;;;;;19.10;9.32;;;;;;;19.46;82.02;101015.06;4957431;28;20636;-72
2023/05/10 11:02:49;;;;;;;12.45;7.88;;;;;;;19.15;84.60;101012.66;4958600;28;20138;-73
2023/05/10 11:05:25;;;;;;;13.02;7.85;;;;;;;19.66;81.07;101005.88;4960446;28;20027;-72